createdAt,value
2023-01-29T00:00:11.121Z,20.10
2023-01-29T00:02:41.922Z,16.70
2023-01-29T00:05:26.547Z,15.45
2023-01-29T00:07:57.424Z,14.68
2023-01-29T00:10:26.233Z,12.80
2023-01-29T00:12:54.453Z,12.88
2023-01-29T00:15:23.390Z,13.23
2023-01-29T00:17:51.649Z,12.45
2023-01-29T00:20:19.681Z,9.52
2023-01-29T00:22:47.762Z,8.70
2023-01-29T00:25:15.530Z,9.93
2023-01-29T00:27:44.153Z,10.50
2023-01-29T00:30:13.481Z,9.40
2023-01-29T00:32:41.800Z,8.18
2023-01-29T00:35:13.001Z,8.15
2023-01-29T00:37:40.858Z,9.05
2023-01-29T00:40:10.483Z,8.13
2023-01-29T00:42:56.940Z,8.88
2023-01-29T00:45:25.128Z,7.88
2023-01-29T00:47:53.031Z,7.82
2023-01-29T00:50:20.966Z,7.82
2023-01-29T00:52:50.393Z,8.47
2023-01-29T00:55:18.910Z,8.85
2023-01-29T00:57:46.983Z,8.50
2023-01-29T01:00:18.137Z,10.85
2023-01-29T01:03:04.870Z,9.77
2023-01-29T01:05:33.422Z,7.73
2023-01-29T01:08:01.340Z,8.65
2023-01-29T01:10:34.043Z,6.38
2023-01-29T01:13:08.499Z,6.30
2023-01-29T01:15:39.068Z,5.95
2023-01-29T01:18:07.287Z,6.37
2023-01-29T01:20:36.577Z,5.68
2023-01-29T01:23:05.574Z,7.95
2023-01-29T01:25:34.218Z,5.95
2023-01-29T01:28:02.015Z,7.28
2023-01-29T01:30:30.211Z,7.83
2023-01-29T01:32:58.392Z,8.93
2023-01-29T01:35:26.144Z,8.02
2023-01-29T01:37:56.903Z,8.80
2023-01-29T01:40:27.362Z,10.02
2023-01-29T01:42:57.974Z,8.40
2023-01-29T01:45:33.829Z,8.85
2023-01-29T01:48:17.636Z,9.05
2023-01-29T01:51:00.941Z,8.77
2023-01-29T01:53:39.266Z,10.30
2023-01-29T01:56:15.439Z,9.00
2023-01-29T01:58:51.253Z,7.75
2023-01-29T02:01:26.903Z,7.72
2023-01-29T02:04:19.089Z,7.78
2023-01-29T02:07:06.253Z,9.60
2023-01-29T02:09:43.465Z,7.33
2023-01-29T02:12:16.724Z,7.95
2023-01-29T02:14:46.340Z,7.40
2023-01-29T02:17:17.358Z,9.15
2023-01-29T02:20:09.361Z,7.47
2023-01-29T02:22:56.442Z,9.67
2023-01-29T02:26:23.346Z,7.28
2023-01-29T02:29:27.546Z,7.10
2023-01-29T02:32:01.736Z,8.32
2023-01-29T02:35:02.369Z,7.57
2023-01-29T02:37:58.360Z,7.90
2023-01-29T02:40:26.419Z,7.00
2023-01-29T02:43:08.411Z,8.68
2023-01-29T02:45:54.830Z,7.15
2023-01-29T02:48:26.235Z,7.88
2023-01-29T02:51:05.408Z,6.25
2023-01-29T02:54:03.384Z,6.20
2023-01-29T02:56:52.257Z,5.82
2023-01-29T02:59:34.541Z,6.07
2023-01-29T03:02:09.003Z,5.43
2023-01-29T03:04:43.624Z,4.97
2023-01-29T03:07:37.696Z,6.33
2023-01-29T03:10:12.115Z,6.00
2023-01-29T03:12:42.948Z,4.85
2023-01-29T03:15:39.712Z,5.10
2023-01-29T03:18:28.052Z,5.18
2023-01-29T03:21:27.565Z,5.70
2023-01-29T03:24:18.430Z,6.95
2023-01-29T03:27:06.784Z,5.47
2023-01-29T03:30:01.058Z,4.85
2023-01-29T03:32:49.429Z,5.03
2023-01-29T03:35:37.196Z,6.07
2023-01-29T03:38:12.003Z,6.75
2023-01-29T03:40:54.124Z,7.47
2023-01-29T03:43:45.112Z,8.73
2023-01-29T03:46:35.253Z,6.28
2023-01-29T03:49:36.652Z,6.93
2023-01-29T03:52:20.291Z,6.00
2023-01-29T03:55:01.230Z,6.82
2023-01-29T03:57:40.677Z,6.55
2023-01-29T04:00:28.295Z,6.40
2023-01-29T04:03:18.456Z,7.10
2023-01-29T04:06:17.994Z,6.85
2023-01-29T04:09:04.921Z,7.10
2023-01-29T04:11:39.059Z,7.22
2023-01-29T04:14:08.974Z,8.20
2023-01-29T04:16:44.967Z,8.57
2023-01-29T04:19:20.567Z,9.10
2023-01-29T04:21:53.697Z,8.88
2023-01-29T04:24:21.577Z,10.57
2023-01-29T04:27:18.022Z,10.32
2023-01-29T04:30:02.008Z,9.73
2023-01-29T04:32:50.580Z,8.90
2023-01-29T04:35:46.311Z,8.98
2023-01-29T04:38:41.792Z,9.48
2023-01-29T04:41:33.884Z,8.60
2023-01-29T04:44:19.021Z,7.57
2023-01-29T04:47:20.527Z,7.15
2023-01-29T04:50:37.897Z,7.70
2023-01-29T04:53:24.182Z,6.53
2023-01-29T04:55:58.020Z,11.20
2023-01-29T04:59:13.467Z,7.77
2023-01-29T05:01:41.894Z,6.45
2023-01-29T05:04:14.350Z,6.95
2023-01-29T05:06:44.029Z,6.03
2023-01-29T05:09:15.031Z,6.32
2023-01-29T05:11:45.264Z,6.30
2023-01-29T05:14:16.036Z,6.53
2023-01-29T05:16:48.262Z,6.60
2023-01-29T05:19:17.400Z,5.80
2023-01-29T05:21:50.364Z,7.38
2023-01-29T05:24:23.865Z,6.07
2023-01-29T05:27:12.323Z,7.55
2023-01-29T05:29:45.967Z,5.90
2023-01-29T05:32:14.605Z,5.72
2023-01-29T05:34:42.593Z,6.97
2023-01-29T05:37:11.551Z,6.87
2023-01-29T05:39:39.387Z,7.28
2023-01-29T05:42:08.120Z,6.20
2023-01-29T05:44:35.919Z,5.25
2023-01-29T05:47:03.847Z,5.95
2023-01-29T05:49:31.679Z,7.43
2023-01-29T05:51:59.585Z,6.60
2023-01-29T05:54:27.685Z,5.70
2023-01-29T05:56:55.563Z,6.45
2023-01-29T05:59:23.564Z,5.70
2023-01-29T06:01:51.773Z,5.50
2023-01-29T06:04:19.512Z,7.00
2023-01-29T06:06:47.388Z,5.93
2023-01-29T06:09:15.487Z,5.72
2023-01-29T06:11:46.145Z,5.82
2023-01-29T06:14:13.974Z,5.93
2023-01-29T06:16:41.848Z,7.10
2023-01-29T06:19:09.707Z,6.72
2023-01-29T06:21:37.462Z,6.88
2023-01-29T06:24:05.907Z,7.55
2023-01-29T06:26:33.741Z,6.33
2023-01-29T06:29:01.557Z,7.72
2023-01-29T06:31:38.529Z,7.28
2023-01-29T06:34:08.513Z,6.72
2023-01-29T06:36:36.452Z,7.10
2023-01-29T06:39:05.258Z,6.90
2023-01-29T06:41:32.988Z,8.00
2023-01-29T06:44:01.034Z,9.15
2023-01-29T06:46:28.711Z,8.77
2023-01-29T06:49:00.622Z,7.50
2023-01-29T06:51:28.865Z,7.90
2023-01-29T06:53:59.369Z,8.68
2023-01-29T06:56:27.130Z,9.10
2023-01-29T06:58:55.125Z,8.27
2023-01-29T07:01:35.288Z,9.80
2023-01-29T07:04:04.926Z,8.60
2023-01-29T07:06:32.779Z,9.52
2023-01-29T07:09:00.800Z,8.80
2023-01-29T07:11:28.826Z,9.77
2023-01-29T07:13:56.685Z,9.15
2023-01-29T07:16:25.497Z,7.97
2023-01-29T07:18:53.498Z,11.13
2023-01-29T07:21:21.329Z,7.55
2023-01-29T07:23:49.222Z,7.97
2023-01-29T07:26:17.132Z,8.85
2023-01-29T07:28:44.875Z,8.33
2023-01-29T07:31:14.669Z,7.68
2023-01-29T07:33:44.807Z,6.80
2023-01-29T07:36:13.159Z,9.27
2023-01-29T07:38:40.908Z,7.97
2023-01-29T07:41:10.291Z,6.23
2023-01-29T07:43:38.053Z,7.32
2023-01-29T07:46:06.160Z,6.82
2023-01-29T07:48:34.173Z,8.40
2023-01-29T07:51:02.094Z,8.77
2023-01-29T07:53:30.108Z,9.43
2023-01-29T07:55:58.662Z,7.50
2023-01-29T07:58:26.530Z,13.55
2023-01-29T08:00:54.383Z,12.00
2023-01-29T08:03:22.311Z,12.13
2023-01-29T08:05:50.291Z,13.60
2023-01-29T08:08:19.577Z,12.95
2023-01-29T08:10:47.699Z,13.95
2023-01-29T08:13:15.958Z,12.68
2023-01-29T08:15:48.095Z,14.55
2023-01-29T08:18:16.594Z,12.97
2023-01-29T08:20:44.402Z,12.57
2023-01-29T08:23:17.545Z,12.63
2023-01-29T08:25:45.521Z,11.55
2023-01-29T08:28:13.679Z,11.98
2023-01-29T08:30:42.117Z,12.47
2023-01-29T08:33:09.870Z,11.00
2023-01-29T08:35:38.384Z,11.65
2023-01-29T08:38:06.359Z,11.20
2023-01-29T08:40:35.746Z,9.60
2023-01-29T08:43:07.833Z,9.10
2023-01-29T08:45:39.173Z,9.02
2023-01-29T08:48:07.370Z,6.82
2023-01-29T08:50:36.242Z,5.80
2023-01-29T08:53:08.191Z,6.93
2023-01-29T08:55:40.935Z,5.90
2023-01-29T08:58:11.824Z,5.63
2023-01-29T09:00:39.865Z,6.97
2023-01-29T09:03:08.261Z,6.03
2023-01-29T09:05:37.413Z,5.57
2023-01-29T09:08:06.072Z,6.70
2023-01-29T09:10:34.410Z,6.20
2023-01-29T09:13:02.298Z,5.07
2023-01-29T09:15:31.466Z,5.53
2023-01-29T09:18:02.874Z,6.03
2023-01-29T09:20:31.320Z,5.40
2023-01-29T09:22:59.565Z,5.53
2023-01-29T09:25:27.529Z,4.57
2023-01-29T09:27:55.593Z,5.30
2023-01-29T09:30:23.506Z,4.40
2023-01-29T09:32:54.118Z,6.90
2023-01-29T09:35:23.903Z,7.63
2023-01-29T09:37:52.876Z,5.65
2023-01-29T09:40:27.241Z,5.20
2023-01-29T09:43:13.580Z,4.70
2023-01-29T09:46:01.676Z,5.43
2023-01-29T09:48:32.666Z,6.05
2023-01-29T09:51:06.847Z,5.15
2023-01-29T09:53:53.625Z,6.38
2023-01-29T09:56:24.087Z,6.30
2023-01-29T09:58:52.040Z,6.37
2023-01-29T10:01:43.191Z,7.47
2023-01-29T10:04:47.860Z,10.63
2023-01-29T10:08:03.115Z,10.15
2023-01-29T10:10:39.557Z,10.05
2023-01-29T10:13:28.806Z,10.03
2023-01-29T10:16:00.388Z,10.05
2023-01-29T10:18:57.994Z,10.25
2023-01-29T10:21:37.407Z,9.02
2023-01-29T10:24:24.433Z,9.98
2023-01-29T10:26:53.354Z,11.43
2023-01-29T10:29:22.578Z,8.77
2023-01-29T10:31:56.956Z,10.18
2023-01-29T10:34:58.037Z,8.60
2023-01-29T10:37:39.572Z,10.50
2023-01-29T10:40:28.489Z,11.90
2023-01-29T10:43:01.197Z,10.13
2023-01-29T10:46:00.986Z,9.35
2023-01-29T10:48:46.680Z,10.07
2023-01-29T10:51:45.381Z,8.90
2023-01-29T10:54:36.326Z,9.33
2023-01-29T10:57:18.373Z,8.02
2023-01-29T11:00:15.903Z,7.13
2023-01-29T11:02:46.323Z,6.93
2023-01-29T11:05:42.872Z,6.72
2023-01-29T11:08:18.480Z,5.10
2023-01-29T11:11:18.155Z,8.30
2023-01-29T11:14:16.180Z,8.38
2023-01-29T11:16:47.365Z,8.82
2023-01-29T11:19:16.867Z,8.40
2023-01-29T11:22:13.475Z,7.87
2023-01-29T11:24:41.409Z,7.78
2023-01-29T11:27:29.903Z,6.05
2023-01-29T11:29:58.315Z,5.15
2023-01-29T11:32:30.004Z,4.47
2023-01-29T11:35:21.535Z,5.77
2023-01-29T11:37:49.842Z,4.82
2023-01-29T11:40:20.900Z,4.05
2023-01-29T11:42:50.044Z,5.88
2023-01-29T11:45:23.628Z,4.43
2023-01-29T11:47:55.266Z,5.33
2023-01-29T11:50:29.714Z,5.38
2023-01-29T11:53:00.635Z,7.40
2023-01-29T11:55:49.533Z,5.65
2023-01-29T11:58:32.118Z,4.65
2023-01-29T12:01:01.234Z,6.40
2023-01-29T12:03:37.992Z,5.07
2023-01-29T12:06:19.826Z,5.40
2023-01-29T12:08:59.248Z,7.43
2023-01-29T12:11:34.805Z,6.30
2023-01-29T12:14:24.994Z,5.33
2023-01-29T12:17:12.743Z,5.05
2023-01-29T12:19:51.519Z,6.25
2023-01-29T12:22:44.232Z,6.80
2023-01-29T12:25:36.159Z,5.65
2023-01-29T12:28:35.163Z,5.57
2023-01-29T12:31:18.550Z,5.30
2023-01-29T12:34:13.919Z,4.97
2023-01-29T12:37:03.544Z,5.30
2023-01-29T12:39:32.827Z,4.55
2023-01-29T12:42:15.056Z,4.83
2023-01-29T12:44:50.020Z,5.22
2023-01-29T12:47:29.808Z,5.55
2023-01-29T12:50:02.840Z,4.28
2023-01-29T12:52:42.285Z,5.38
2023-01-29T12:55:37.074Z,5.40
2023-01-29T12:58:13.676Z,5.70
2023-01-29T13:00:45.888Z,6.70
2023-01-29T13:03:27.742Z,5.82
2023-01-29T13:06:04.857Z,6.38
2023-01-29T13:09:00.720Z,11.27
2023-01-29T13:11:38.323Z,5.40
2023-01-29T13:14:23.515Z,6.18
2023-01-29T13:17:03.828Z,7.60
2023-01-29T13:19:44.015Z,4.47
2023-01-29T13:22:28.228Z,5.20
2023-01-29T13:25:04.689Z,5.55
2023-01-29T13:27:35.998Z,5.93
2023-01-29T13:30:05.003Z,5.78
2023-01-29T13:32:36.624Z,5.97
2023-01-29T13:35:14.166Z,6.13
2023-01-29T13:37:55.779Z,6.40
2023-01-29T13:40:28.182Z,5.15
2023-01-29T13:42:59.933Z,5.22
2023-01-29T13:45:44.314Z,7.43
2023-01-29T13:48:27.962Z,9.67
2023-01-29T13:51:00.518Z,5.35
2023-01-29T13:53:40.841Z,5.00
2023-01-29T13:56:33.560Z,6.18
2023-01-29T13:59:03.876Z,5.72
2023-01-29T14:01:49.745Z,5.83
2023-01-29T14:04:22.917Z,5.38
2023-01-29T14:06:53.509Z,5.32
2023-01-29T14:09:39.543Z,5.93
2023-01-29T14:12:22.338Z,6.47
2023-01-29T14:14:57.065Z,5.53
2023-01-29T14:17:27.562Z,6.97
2023-01-29T14:20:18.919Z,5.43
2023-01-29T14:22:58.046Z,6.63
2023-01-29T14:25:38.894Z,5.28
2023-01-29T14:28:20.525Z,5.77
2023-01-29T14:30:50.082Z,8.05
2023-01-29T14:33:34.274Z,5.95
2023-01-29T14:36:09.940Z,7.32
2023-01-29T14:38:39.419Z,7.15
2023-01-29T14:41:22.024Z,7.13
2023-01-29T14:43:49.921Z,6.60
2023-01-29T14:46:35.822Z,6.07
2023-01-29T14:49:04.211Z,9.95
2023-01-29T14:51:38.674Z,5.32
2023-01-29T14:54:34.083Z,5.93
2023-01-29T14:57:07.028Z,5.72
2023-01-29T15:00:00.340Z,6.70
2023-01-29T15:02:42.526Z,6.13
2023-01-29T15:05:20.567Z,12.55
2023-01-29T15:07:55.104Z,9.00
2023-01-29T15:10:33.902Z,9.40
2023-01-29T15:13:05.241Z,9.77
2023-01-29T15:15:54.938Z,8.27
2023-01-29T15:18:51.220Z,7.75
2023-01-29T15:21:20.203Z,8.13
2023-01-29T15:23:49.355Z,5.82
2023-01-29T15:26:22.072Z,7.75
2023-01-29T15:29:04.189Z,6.97
2023-01-29T15:31:33.729Z,7.35
2023-01-29T15:34:07.792Z,8.73
2023-01-29T15:36:37.742Z,6.40
2023-01-29T15:39:24.504Z,7.60
2023-01-29T15:42:11.776Z,6.70
2023-01-29T15:44:46.602Z,7.53
2023-01-29T15:47:15.948Z,8.07
2023-01-29T15:49:45.911Z,23.05
2023-01-29T15:52:27.446Z,11.27
2023-01-29T15:54:58.170Z,9.52
2023-01-29T15:57:34.646Z,10.85
2023-01-29T16:00:03.080Z,8.00
2023-01-29T16:02:42.923Z,8.60
2023-01-29T16:05:31.105Z,8.70
2023-01-29T16:08:01.262Z,9.82
2023-01-29T16:10:32.430Z,21.90
2023-01-29T16:13:01.251Z,22.33
2023-01-29T16:15:35.654Z,28.15
2023-01-29T16:18:19.527Z,29.58
2023-01-29T16:20:52.866Z,17.60
2023-01-29T16:23:28.257Z,13.05
2023-01-29T16:26:07.663Z,13.00
2023-01-29T16:28:41.852Z,14.15
2023-01-29T16:31:11.550Z,12.60
2023-01-29T16:33:43.035Z,13.05
2023-01-29T16:36:19.019Z,11.50
2023-01-29T16:39:14.627Z,13.63
2023-01-29T16:41:42.476Z,14.77
2023-01-29T16:44:16.574Z,18.95
2023-01-29T16:46:49.273Z,16.23
2023-01-29T16:49:29.349Z,16.75
2023-01-29T16:52:15.489Z,13.90
2023-01-29T16:54:44.151Z,13.82
2023-01-29T16:57:16.796Z,12.80
2023-01-29T16:59:46.247Z,10.20
2023-01-29T17:02:25.254Z,8.77
2023-01-29T17:04:57.802Z,8.73
2023-01-29T17:07:26.159Z,7.80
2023-01-29T17:10:00.383Z,6.72
2023-01-29T17:12:29.811Z,6.55
2023-01-29T17:15:00.706Z,7.75
2023-01-29T17:17:34.139Z,5.47
2023-01-29T17:20:16.606Z,5.93
2023-01-29T17:22:45.498Z,5.70
2023-01-29T17:25:17.461Z,6.80
2023-01-29T17:27:51.866Z,7.53
2023-01-29T17:30:22.776Z,8.13
2023-01-29T17:32:50.704Z,9.10
2023-01-29T17:35:18.875Z,9.73
2023-01-29T17:37:46.977Z,10.23
2023-01-29T17:40:28.656Z,13.07
2023-01-29T17:42:56.573Z,11.97
2023-01-29T17:45:24.467Z,12.07
2023-01-29T17:47:52.316Z,12.52
2023-01-29T17:50:24.444Z,15.18
2023-01-29T17:52:53.478Z,10.98
2023-01-29T17:55:21.379Z,11.83
2023-01-29T17:57:52.492Z,11.68
2023-01-29T18:00:25.300Z,11.95
2023-01-29T18:02:53.253Z,12.07
2023-01-29T18:05:21.108Z,11.77
2023-01-29T18:07:52.144Z,11.17
2023-01-29T18:10:21.983Z,10.15
2023-01-29T18:12:49.729Z,11.65
2023-01-29T18:15:18.594Z,10.02
2023-01-29T18:17:47.287Z,10.65
2023-01-29T18:20:25.788Z,9.73
2023-01-29T18:22:54.520Z,10.95
2023-01-29T18:25:24.147Z,10.85
2023-01-29T18:27:52.931Z,10.57
2023-01-29T18:30:20.804Z,9.75
2023-01-29T18:32:50.633Z,10.97
2023-01-29T18:35:18.645Z,9.77
2023-01-29T18:37:47.133Z,8.70
2023-01-29T18:40:17.465Z,7.97
2023-01-29T18:42:46.583Z,8.55
2023-01-29T18:45:15.918Z,7.63
2023-01-29T18:47:44.403Z,7.82
2023-01-29T18:50:12.727Z,8.57
2023-01-29T18:52:41.302Z,8.70
2023-01-29T18:55:10.104Z,9.18
2023-01-29T18:58:25.164Z,7.67
2023-01-29T19:00:27.471Z,7.68
2023-01-29T19:02:55.111Z,7.03
2023-01-29T19:05:24.855Z,8.55
2023-01-29T19:07:52.840Z,7.93
2023-01-29T19:10:20.698Z,8.93
2023-01-29T19:12:48.443Z,8.00
2023-01-29T19:15:21.161Z,8.23
2023-01-29T19:17:50.799Z,9.63
2023-01-29T19:20:21.633Z,7.63
2023-01-29T19:22:49.544Z,7.43
2023-01-29T19:25:18.235Z,8.20
2023-01-29T19:27:46.639Z,8.43
2023-01-29T19:30:15.027Z,9.57
2023-01-29T19:32:42.901Z,8.88
2023-01-29T19:35:10.643Z,11.13
2023-01-29T19:37:38.666Z,10.45
2023-01-29T19:40:08.398Z,11.77
2023-01-29T19:42:37.898Z,14.52
2023-01-29T19:45:06.200Z,16.00
2023-01-29T19:47:39.396Z,17.20
2023-01-29T19:50:08.843Z,16.15
2023-01-29T19:52:52.326Z,17.75
2023-01-29T19:55:21.637Z,17.70
2023-01-29T19:57:52.059Z,17.88
2023-01-29T20:00:20.905Z,16.00
2023-01-29T20:02:48.956Z,17.02
2023-01-29T20:05:18.987Z,16.55
2023-01-29T20:07:47.249Z,16.17
2023-01-29T20:10:17.890Z,16.92
2023-01-29T20:12:47.867Z,15.30
2023-01-29T20:15:16.385Z,14.65
2023-01-29T20:17:46.676Z,15.35
2023-01-29T20:20:15.207Z,15.90
2023-01-29T20:22:43.132Z,17.17
2023-01-29T20:25:14.110Z,15.80
2023-01-29T20:27:42.639Z,15.02
2023-01-29T20:30:11.832Z,17.20
2023-01-29T20:32:40.114Z,14.50
2023-01-29T20:35:08.752Z,13.85
2023-01-29T20:37:37.148Z,13.37
2023-01-29T20:40:05.457Z,13.23
2023-01-29T20:42:33.227Z,14.38
2023-01-29T20:45:01.563Z,14.55
2023-01-29T20:47:29.589Z,11.75
2023-01-29T20:49:57.729Z,12.03
2023-01-29T20:52:25.731Z,14.45
2023-01-29T20:54:54.017Z,13.77
2023-01-29T20:57:22.209Z,16.05
2023-01-29T20:59:50.502Z,14.90
2023-01-29T21:02:18.635Z,13.63
2023-01-29T21:04:46.606Z,15.50
2023-01-29T21:07:14.694Z,14.18
2023-01-29T21:09:44.030Z,14.70
2023-01-29T21:12:13.056Z,15.32
2023-01-29T21:14:41.247Z,13.70
2023-01-29T21:17:09.669Z,14.60
2023-01-29T21:19:37.586Z,13.75
2023-01-29T21:22:08.450Z,12.45
2023-01-29T21:24:37.123Z,12.80
2023-01-29T21:27:05.184Z,12.75
2023-01-29T21:29:33.459Z,14.40
2023-01-29T21:32:01.417Z,13.30
2023-01-29T21:34:29.698Z,13.90
2023-01-29T21:36:57.480Z,15.48
2023-01-29T21:39:27.291Z,13.98
2023-01-29T21:42:13.657Z,14.47
2023-01-29T21:44:41.705Z,15.20
2023-01-29T21:47:19.296Z,15.15
2023-01-29T21:49:47.799Z,13.68
2023-01-29T21:52:15.876Z,15.35
2023-01-29T21:54:47.998Z,12.57
2023-01-29T21:57:17.200Z,14.68
2023-01-29T21:59:47.051Z,13.43
2023-01-29T22:02:22.584Z,11.98
2023-01-29T22:04:52.563Z,11.85
2023-01-29T22:07:20.528Z,10.87
2023-01-29T22:09:48.341Z,11.93
2023-01-29T22:12:17.813Z,12.23
2023-01-29T22:14:47.818Z,11.77
2023-01-29T22:17:16.890Z,11.05
2023-01-29T22:19:44.891Z,10.93
2023-01-29T22:22:17.008Z,10.98
2023-01-29T22:24:47.071Z,10.57
2023-01-29T22:27:16.178Z,11.23
2023-01-29T22:29:44.330Z,11.10
2023-01-29T22:32:13.626Z,13.23
2023-01-29T22:34:41.953Z,11.63
2023-01-29T22:37:10.210Z,11.18
2023-01-29T22:39:38.196Z,11.90
2023-01-29T22:42:06.371Z,9.70
2023-01-29T22:44:34.624Z,10.87
2023-01-29T22:47:02.579Z,12.27
2023-01-29T22:49:31.143Z,10.02
2023-01-29T22:52:11.231Z,10.45
2023-01-29T22:54:43.877Z,10.43
2023-01-29T22:57:13.715Z,12.27
2023-01-29T22:59:41.914Z,10.15
2023-01-29T23:02:09.977Z,12.27
2023-01-29T23:04:38.126Z,8.88
2023-01-29T23:07:05.959Z,11.27
2023-01-29T23:09:33.948Z,11.83
2023-01-29T23:12:03.037Z,13.88
2023-01-29T23:14:30.839Z,14.30
2023-01-29T23:16:58.873Z,11.52
2023-01-29T23:19:27.441Z,10.85
2023-01-29T23:21:55.403Z,10.80
2023-01-29T23:24:23.325Z,10.13
2023-01-29T23:27:09.609Z,11.73
2023-01-29T23:29:37.775Z,9.93
2023-01-29T23:32:07.391Z,11.18
2023-01-29T23:34:35.603Z,10.77
2023-01-29T23:37:03.870Z,10.82
2023-01-29T23:39:32.102Z,9.95
2023-01-29T23:42:00.915Z,11.05
2023-01-29T23:44:28.886Z,9.02
2023-01-29T23:46:56.889Z,10.27
2023-01-29T23:49:25.179Z,8.90
2023-01-29T23:51:53.168Z,9.00
2023-01-29T23:54:21.064Z,8.68
2023-01-29T23:56:49.185Z,8.95
2023-01-29T23:59:17.673Z,8.50
